Time;durP1;ratioP1;P1;durP2;ratioP2;P2;SDS_P1;SDS_P2;PMS_P1;PMS_P2;Temp;Humidity;BMP_temperature;BMP_pressure;BME280_temperature;BME280_humidity;BME280_pressure;Samples;Min_cycle;Max_cycle;Signal;HPM_P1;HPM_P2
2023/12/05 00:02:15;;;;;;;33.70;30.50;;;-1.30;87.00;;;;;;4976088;28;20184;-87
2023/12/05 00:04:42;;;;;;;22.63;20.23;;;-1.40;87.00;;;;;;4993597;28;20233;-87
2023/12/05 00:07:08;;;;;;;19.00;16.83;;;-1.40;87.10;;;;;;4976931;28;20291;-87
2023/12/05 00:09:33;;;;;;;23.00;17.73;;;-1.40;87.20;;;;;;4975879;28;20217;-87
2023/12/05 00:11:59;;;;;;;31.30;28.30;;;-1.30;87.10;;;;;;4992417;28;20180;-88
2023/12/05 00:14:24;;;;;;;30.93;28.07;;;-1.30;87.10;;;;;;4976046;28;20276;-87
2023/12/05 00:16:50;;;;;;;35.43;32.13;;;-1.30;87.10;;;;;;4993645;28;20229;-87
2023/12/05 00:19:15;;;;;;;23.50;18.00;;;-1.30;87.20;;;;;;4975790;28;20213;-86
2023/12/05 00:21:41;;;;;;;23.07;18.67;;;-1.30;87.20;;;;;;4993302;28;20212;-88
2023/12/05 00:24:06;;;;;;;33.53;30.30;;;-1.30;87.10;;;;;;4993486;28;20257;-88
2023/12/05 00:26:32;;;;;;;33.27;30.17;;;-1.20;87.10;;;;;;4976006;28;20183;-88
2023/12/05 00:28:58;;;;;;;33.07;30.07;;;-1.30;87.00;;;;;;4976947;28;20288;-88
2023/12/05 00:31:23;;;;;;;32.90;29.70;;;-1.20;87.00;;;;;;4997625;28;20601;-87
2023/12/05 00:33:49;;;;;;;22.63;17.80;;;-1.20;86.90;;;;;;4997235;28;20242;-87
2023/12/05 00:36:15;;;;;;;21.70;18.73;;;-1.20;86.80;;;;;;4996145;28;20178;-87
2023/12/05 00:38:40;;;;;;;31.63;28.63;;;-1.20;86.80;;;;;;4998563;28;20217;-87
2023/12/05 00:41:07;;;;;;;30.33;27.50;;;-1.30;86.90;;;;;;4997555;28;20250;-87
2023/12/05 00:43:32;;;;;;;31.47;28.57;;;-1.20;86.90;;;;;;4980121;28;20178;-87
2023/12/05 00:45:58;;;;;;;24.63;22.10;;;-1.20;87.00;;;;;;4997371;28;20170;-87
2023/12/05 00:48:24;;;;;;;23.27;19.07;;;-1.20;86.90;;;;;;4997035;28;20242;-87
2023/12/05 00:50:50;;;;;;;20.80;18.30;;;-1.20;87.00;;;;;;4995986;28;20255;-86
2023/12/05 00:53:15;;;;;;;30.37;27.37;;;-1.20;86.90;;;;;;4979596;28;20195;-88
2023/12/05 00:55:41;;;;;;;32.83;29.60;;;-1.20;87.00;;;;;;4979553;28;20185;-87
2023/12/05 00:58:06;;;;;;;34.97;31.47;;;-1.10;87.00;;;;;;4995863;28;20255;-87
2023/12/05 01:00:32;;;;;;;23.07;18.77;;;-1.20;87.00;;;;;;4979363;28;20216;-86
2023/12/05 01:02:57;;;;;;;23.23;20.30;;;-1.20;87.00;;;;;;4996825;28;20220;-86
2023/12/05 01:05:23;;;;;;;32.43;29.23;;;-1.10;87.00;;;;;;4997098;28;20172;-86
2023/12/05 01:07:48;;;;;;;33.00;29.80;;;-1.10;86.90;;;;;;4996967;28;20616;-87
2023/12/05 01:10:14;;;;;;;35.00;31.33;;;-1.10;86.70;;;;;;4979990;28;20181;-88
2023/12/05 01:12:39;;;;;;;31.97;28.87;;;-1.00;86.60;;;;;;4979410;28;20178;-88
2023/12/05 01:15:06;;;;;;;20.63;17.50;;;-1.00;86.60;;;;;;4979489;28;20268;-87
2023/12/05 01:17:31;;;;;;;26.90;21.83;;;-1.00;86.50;;;;;;4996319;28;20170;-86
2023/12/05 01:19:57;;;;;;;31.57;28.57;;;-1.00;86.50;;;;;;4979450;28;20198;-85
2023/12/05 01:22:23;;;;;;;33.33;30.33;;;-1.00;86.60;;;;;;4997021;28;20170;-86
2023/12/05 01:24:55;;;;;;;32.70;29.77;;;-1.00;86.60;;;;;;4995781;28;20202;-86
2023/12/05 01:27:21;;;;;;;19.43;17.33;;;-1.00;86.80;;;;;;4979122;28;20174;-87
2023/12/05 01:29:47;;;;;;;23.73;20.13;;;-1.00;86.60;;;;;;4996532;28;20187;-86
2023/12/05 01:32:14;;;;;;;23.90;20.13;;;-1.00;86.70;;;;;;4994833;28;20265;-86
2023/12/05 01:34:39;;;;;;;33.47;30.07;;;-1.00;86.70;;;;;;4979072;28;20241;-87
2023/12/05 01:37:05;;;;;;;32.20;29.13;;;-0.90;86.70;;;;;;4978796;28;20681;-86
2023/12/05 01:39:30;;;;;;;36.00;32.80;;;-1.00;86.70;;;;;;4996135;28;20544;-86
2023/12/05 01:41:57;;;;;;;23.70;20.73;;;-1.00;86.80;;;;;;4978064;28;20202;-86
2023/12/05 01:44:23;;;;;;;21.97;19.43;;;-0.90;86.90;;;;;;4978673;28;20208;-86
2023/12/05 01:46:49;;;;;;;32.47;29.37;;;-1.00;86.60;;;;;;4995930;28;20202;-86
2023/12/05 01:49:16;;;;;;;32.67;29.57;;;-1.00;86.70;;;;;;4996033;28;20292;-87
2023/12/05 01:51:42;;;;;;;34.10;30.87;;;-0.90;86.60;;;;;;4978468;28;20177;-86
2023/12/05 01:54:08;;;;;;;22.70;18.47;;;-0.90;86.60;;;;;;4978394;28;20550;-86
2023/12/05 01:56:34;;;;;;;25.07;19.97;;;-0.90;86.70;;;;;;4979242;28;20209;-87
2023/12/05 01:59:00;;;;;;;24.33;20.00;;;-0.90;86.70;;;;;;4995989;28;20201;-86
2023/12/05 02:01:25;;;;;;;33.43;30.03;;;-0.90;86.80;;;;;;4994662;28;20269;-87
2023/12/05 02:03:52;;;;;;;34.67;31.43;;;-0.90;86.70;;;;;;4978446;28;20177;-86
2023/12/05 02:06:18;;;;;;;34.37;30.97;;;-0.90;86.70;;;;;;4978393;28;20181;-86
2023/12/05 02:08:45;;;;;;;25.87;18.77;;;-0.80;86.70;;;;;;4994539;28;20652;-86
2023/12/05 02:11:11;;;;;;;26.63;19.47;;;-0.80;86.60;;;;;;4978457;28;20182;-87
2023/12/05 02:13:37;;;;;;;36.20;32.77;;;-0.80;86.60;;;;;;4978532;28;20237;-86
2023/12/05 02:16:25;;;;;;;35.37;32.13;;;-0.90;86.60;;;;;;4978025;28;20178;-87
2023/12/05 02:18:59;;;;;;;34.50;31.33;;;-0.80;86.50;;;;;;4995332;28;20764;-86
2023/12/05 02:21:31;;;;;;;22.93;19.03;;;-0.80;86.30;;;;;;4995869;28;20688;-86
2023/12/05 02:24:17;;;;;;;24.60;19.40;;;-0.80;86.50;;;;;;4995800;28;20631;-86
2023/12/05 02:26:47;;;;;;;31.47;28.37;;;-0.80;86.60;;;;;;4978260;28;20162;-86
2023/12/05 02:29:13;;;;;;;33.30;30.13;;;-0.80;86.60;;;;;;4995479;28;20623;-87
2023/12/05 02:31:38;;;;;;;34.27;30.97;;;-0.80;86.70;;;;;;4995604;28;20171;-88
2023/12/05 02:34:04;;;;;;;26.00;22.10;;;-0.90;86.70;;;;;;4978461;28;20261;-87
2023/12/05 02:36:45;;;;;;;25.37;20.23;;;-0.80;86.60;;;;;;4996292;28;20178;-87
2023/12/05 02:39:21;;;;;;;27.47;20.50;;;-0.80;86.70;;;;;;4978323;28;20232;-87
2023/12/05 02:41:53;;;;;;;30.60;27.70;;;-0.80;86.80;;;;;;4995648;28;20225;-87
2023/12/05 02:44:22;;;;;;;34.37;31.07;;;-0.80;86.80;;;;;;4995959;28;20158;-86
2023/12/05 02:46:49;;;;;;;37.87;34.00;;;-0.80;86.60;;;;;;4978077;28;20276;-87
2023/12/05 02:49:16;;;;;;;30.97;21.17;;;-0.80;86.80;;;;;;4978253;28;20210;-87
2023/12/05 02:51:41;;;;;;;23.90;20.17;;;-0.80;87.00;;;;;;4993719;28;20185;-86
2023/12/05 02:54:07;;;;;;;33.87;30.37;;;-0.80;87.10;;;;;;4992948;28;20229;-87
2023/12/05 02:56:37;;;;;;;34.17;30.77;;;-0.80;87.20;;;;;;4993888;28;20550;-86
2023/12/05 02:59:03;;;;;;;35.43;31.97;;;-0.90;87.40;;;;;;4977940;28;20205;-87
2023/12/05 03:01:29;;;;;;;22.63;18.93;;;-0.90;87.70;;;;;;4978108;28;20209;-86
2023/12/05 03:03:55;;;;;;;22.83;19.07;;;-0.90;87.80;;;;;;4995472;28;20170;-86
2023/12/05 03:06:20;;;;;;;22.87;18.50;;;-0.90;87.80;;;;;;4995254;28;20174;-87
2023/12/05 03:08:46;;;;;;;24.33;18.17;;;-0.90;87.80;;;;;;4977741;28;20194;-87
2023/12/05 03:11:12;;;;;;;22.07;16.97;;;-0.90;88.00;;;;;;4993852;28;20181;-87
2023/12/05 03:13:40;;;;;;;21.70;18.23;;;-0.90;88.00;;;;;;4977493;28;20724;-87
2023/12/05 03:16:07;;;;;;;22.23;17.83;;;-0.90;88.10;;;;;;4977697;28;20182;-87
2023/12/05 03:18:33;;;;;;;23.50;17.70;;;-0.90;88.10;;;;;;4977452;28;20697;-87
2023/12/05 03:20:58;;;;;;;30.90;27.63;;;-0.90;88.20;;;;;;4977335;28;20226;-86
2023/12/05 03:23:24;;;;;;;33.57;29.97;;;-0.90;88.00;;;;;;4994544;28;20259;-86
2023/12/05 03:25:49;;;;;;;33.37;29.80;;;-0.90;88.00;;;;;;4995295;28;20226;-87
2023/12/05 03:28:15;;;;;;;33.17;29.83;;;-0.90;88.30;;;;;;4977426;28;20278;-86
2023/12/05 03:30:40;;;;;;;34.53;30.90;;;-0.90;88.20;;;;;;4993456;28;20264;-86
2023/12/05 03:33:06;;;;;;;34.53;30.93;;;-0.90;88.30;;;;;;4977196;28;20669;-88
2023/12/05 03:35:31;;;;;;;35.77;32.00;;;-0.90;88.40;;;;;;4995105;28;20224;-87
2023/12/05 03:37:57;;;;;;;33.70;30.43;;;-0.90;88.20;;;;;;4977159;28;20282;-87
2023/12/05 03:40:22;;;;;;;34.57;30.77;;;-0.90;88.30;;;;;;4994481;28;20217;-87
2023/12/05 03:42:48;;;;;;;29.77;26.67;;;-1.00;88.60;;;;;;4976900;28;20190;-87
2023/12/05 03:45:13;;;;;;;27.03;18.67;;;-1.00;88.70;;;;;;4994338;28;20170;-87
2023/12/05 03:47:39;;;;;;;26.53;20.00;;;-1.00;88.80;;;;;;4993417;28;20650;-87
2023/12/05 03:50:05;;;;;;;32.20;28.40;;;-1.00;89.10;;;;;;4994566;28;20180;-86
2023/12/05 03:52:30;;;;;;;31.97;28.67;;;-1.10;89.30;;;;;;4994138;28;20230;-87
2023/12/05 03:54:56;;;;;;;34.53;30.70;;;-1.10;89.30;;;;;;4993110;28;20170;-87
2023/12/05 03:57:21;;;;;;;27.83;20.57;;;-1.10;89.60;;;;;;4976811;28;20185;-86
2023/12/05 03:59:47;;;;;;;29.00;21.77;;;-1.10;89.70;;;;;;4976438;28;20202;-87
2023/12/05 04:02:12;;;;;;;31.27;24.63;;;-1.10;89.80;;;;;;4992964;28;20206;-87
2023/12/05 04:04:38;;;;;;;31.43;28.03;;;-1.20;89.80;;;;;;4981046;28;20286;-87
2023/12/05 04:07:04;;;;;;;32.53;28.87;;;-1.20;89.90;;;;;;5000864;28;20181;-87
2023/12/05 04:09:30;;;;;;;32.13;27.60;;;-1.20;90.00;;;;;;4983401;28;20288;-86
2023/12/05 04:11:56;;;;;;;31.30;22.60;;;-1.20;89.90;;;;;;5000859;28;20209;-87
2023/12/05 04:14:21;;;;;;;28.37;18.87;;;-1.20;90.00;;;;;;4999196;28;20189;-86
2023/12/05 04:16:47;;;;;;;30.03;24.50;;;-1.20;90.00;;;;;;4982843;28;20179;-86
2023/12/05 04:19:12;;;;;;;30.83;26.03;;;-1.20;89.90;;;;;;5000152;28;20571;-86
2023/12/05 04:21:37;;;;;;;41.13;30.57;;;-1.10;90.00;;;;;;4982819;28;20296;-86
2023/12/05 04:24:03;;;;;;;36.90;31.83;;;-1.20;90.00;;;;;;4999021;28;20170;-86
2023/12/05 04:26:29;;;;;;;33.07;23.03;;;-1.20;90.10;;;;;;4982952;28;20680;-87
2023/12/05 04:28:54;;;;;;;34.73;22.17;;;-1.20;90.20;;;;;;4999349;28;20196;-86
2023/12/05 04:31:20;;;;;;;38.73;30.97;;;-1.20;90.20;;;;;;4983325;28;20268;-86
2023/12/05 04:33:45;;;;;;;38.00;30.50;;;-1.20;90.30;;;;;;4983716;28;20189;-86
2023/12/05 04:36:11;;;;;;;33.17;28.87;;;-1.20;90.30;;;;;;5001108;28;20174;-87
2023/12/05 04:38:38;;;;;;;28.83;20.43;;;-1.20;90.40;;;;;;5001002;28;20261;-87
2023/12/05 04:41:04;;;;;;;28.63;20.23;;;-1.20;90.30;;;;;;4983551;28;20221;-86
2023/12/05 04:43:33;;;;;;;37.87;23.20;;;-1.20;90.40;;;;;;4999570;28;20185;-86
2023/12/05 04:45:59;;;;;;;37.67;30.00;;;-1.20;90.40;;;;;;4983189;28;20198;-86
2023/12/05 04:48:24;;;;;;;42.30;30.90;;;-1.20;90.60;;;;;;4983189;28;20197;-87
2023/12/05 04:50:50;;;;;;;37.87;30.80;;;-1.30;90.70;;;;;;5000900;28;20170;-86
2023/12/05 04:53:15;;;;;;;36.00;24.40;;;-1.30;90.80;;;;;;4982551;28;20186;-86
2023/12/05 04:55:41;;;;;;;39.73;25.30;;;-1.30;90.80;;;;;;4982463;28;20185;-86
2023/12/05 04:58:06;;;;;;;34.10;28.33;;;-1.30;91.00;;;;;;4982557;28;20240;-86
2023/12/05 05:00:36;;;;;;;39.40;30.20;;;-1.30;91.00;;;;;;4982390;28;20206;-86
2023/12/05 05:03:02;;;;;;;34.57;26.60;;;-1.30;91.00;;;;;;4999768;28;20166;-86
2023/12/05 05:05:27;;;;;;;36.53;26.83;;;-1.30;91.00;;;;;;4999565;28;20768;-87
2023/12/05 05:07:53;;;;;;;35.03;23.90;;;-1.40;91.10;;;;;;4999538;28;20281;-86
2023/12/05 05:10:19;;;;;;;31.43;21.43;;;-1.30;91.20;;;;;;4982375;28;20188;-87
2023/12/05 05:12:44;;;;;;;42.00;29.30;;;-1.40;91.40;;;;;;4999522;28;20182;-87
2023/12/05 05:15:10;;;;;;;43.43;32.10;;;-1.40;91.50;;;;;;4980617;28;20190;-86
2023/12/05 05:17:35;;;;;;;37.63;29.23;;;-1.30;91.60;;;;;;4996115;28;20651;-86
2023/12/05 05:20:01;;;;;;;29.27;21.13;;;-1.40;91.60;;;;;;4996243;28;20190;-86
2023/12/05 05:22:26;;;;;;;33.20;21.67;;;-1.40;91.70;;;;;;4995173;28;20236;-86
2023/12/05 05:24:52;;;;;;;38.33;27.10;;;-1.40;91.90;;;;;;4978911;28;20182;-87
2023/12/05 05:27:17;;;;;;;34.50;27.77;;;-1.50;92.00;;;;;;4996569;28;20669;-86
2023/12/05 05:29:43;;;;;;;29.87;23.47;;;-1.40;92.20;;;;;;4995009;28;20194;-86
2023/12/05 05:32:09;;;;;;;35.13;26.57;;;-1.50;92.40;;;;;;4996607;28;20674;-86
2023/12/05 05:34:34;;;;;;;47.87;27.10;;;-1.50;92.50;;;;;;4978830;28;20199;-86
2023/12/05 05:37:00;;;;;;;40.03;24.97;;;-1.50;92.60;;;;;;4994938;28;20188;-86
2023/12/05 05:39:25;;;;;;;43.67;32.63;;;-1.50;92.70;;;;;;4978480;28;20689;-87
2023/12/05 05:41:51;;;;;;;42.23;29.53;;;-1.60;92.80;;;;;;4995770;28;20233;-86
2023/12/05 05:44:16;;;;;;;43.13;29.13;;;-1.60;92.90;;;;;;4995961;28;20725;-86
2023/12/05 05:46:42;;;;;;;41.20;26.07;;;-1.60;92.90;;;;;;4978441;28;20558;-86
2023/12/05 05:49:07;;;;;;;45.00;26.97;;;-1.60;92.90;;;;;;4996090;28;20205;-87
2023/12/05 05:51:33;;;;;;;45.67;27.77;;;-1.60;92.90;;;;;;4995789;28;20182;-87
2023/12/05 05:53:58;;;;;;;39.60;26.10;;;-1.60;92.90;;;;;;4978791;28;20656;-86
2023/12/05 05:56:24;;;;;;;39.67;30.40;;;-1.60;92.90;;;;;;4995693;28;20229;-86
2023/12/05 05:58:50;;;;;;;46.80;33.20;;;-1.50;92.90;;;;;;4994454;28;20619;-86
2023/12/05 06:01:15;;;;;;;43.13;27.27;;;-1.60;92.80;;;;;;4978205;28;20208;-86
2023/12/05 06:03:41;;;;;;;39.93;24.47;;;-1.50;92.90;;;;;;4995851;28;20192;-87
2023/12/05 06:06:08;;;;;;;48.73;32.80;;;-1.60;92.90;;;;;;4995781;28;20189;-88
2023/12/05 06:08:33;;;;;;;49.67;29.77;;;-1.60;92.90;;;;;;4978504;28;20201;-88
2023/12/05 06:10:59;;;;;;;43.30;28.80;;;-1.50;93.00;;;;;;4994244;28;20174;-88
2023/12/05 06:13:24;;;;;;;49.13;29.97;;;-1.50;93.00;;;;;;4978224;28;20215;-86
2023/12/05 06:15:50;;;;;;;52.10;29.90;;;-1.50;93.10;;;;;;4977945;28;20185;-87
2023/12/05 06:18:16;;;;;;;49.90;29.10;;;-1.50;93.10;;;;;;4977695;28;20592;-87
2023/12/05 06:20:43;;;;;;;43.20;29.40;;;-1.50;93.20;;;;;;4993988;28;20208;-88
2023/12/05 06:23:08;;;;;;;49.73;31.73;;;-1.50;93.20;;;;;;4977756;28;20696;-88
2023/12/05 06:25:34;;;;;;;48.90;33.43;;;-1.50;93.20;;;;;;4977692;28;20177;-88
2023/12/05 06:28:00;;;;;;;38.73;25.63;;;-1.50;93.20;;;;;;4993617;28;20196;-88
2023/12/05 06:30:25;;;;;;;42.00;26.63;;;-1.50;93.10;;;;;;4995033;28;20181;-88
2023/12/05 06:32:51;;;;;;;42.53;29.97;;;-1.50;93.20;;;;;;4993735;28;20681;-88
2023/12/05 06:35:16;;;;;;;39.40;28.00;;;-1.50;93.10;;;;;;4977784;28;20219;-89
2023/12/05 06:37:42;;;;;;;42.67;28.43;;;-1.50;93.10;;;;;;4977355;28;20581;-86
2023/12/05 06:40:08;;;;;;;45.80;31.73;;;-1.40;93.10;;;;;;4977312;28;20180;-87
2023/12/05 06:42:34;;;;;;;48.73;29.67;;;-1.50;93.10;;;;;;4994794;28;20177;-86
2023/12/05 06:45:00;;;;;;;45.47;29.00;;;-1.50;93.20;;;;;;4994748;28;20177;-88
2023/12/05 06:47:27;;;;;;;44.53;31.57;;;-1.40;93.30;;;;;;4978009;28;20186;-86
2023/12/05 06:49:52;;;;;;;44.60;32.77;;;-1.40;93.20;;;;;;4977506;28;20200;-86
2023/12/05 06:52:19;;;;;;;45.40;30.23;;;-1.40;93.10;;;;;;4994682;28;20233;-86
2023/12/05 06:54:45;;;;;;;38.67;25.13;;;-1.40;93.10;;;;;;4994835;28;20221;-86
2023/12/05 06:57:10;;;;;;;52.27;31.53;;;-1.40;93.10;;;;;;4993411;28;20182;-87
2023/12/05 06:59:37;;;;;;;53.97;33.97;;;-1.40;93.10;;;;;;4994775;28;20193;-87
2023/12/05 07:02:02;;;;;;;50.70;33.20;;;-1.40;93.10;;;;;;4977118;28;20290;-87
2023/12/05 07:04:28;;;;;;;44.57;31.23;;;-1.40;93.10;;;;;;4994371;28;20281;-86
2023/12/05 07:06:53;;;;;;;47.87;33.40;;;-1.40;93.00;;;;;;4977068;28;20173;-86
2023/12/05 07:09:19;;;;;;;50.50;30.37;;;-1.40;93.00;;;;;;4976870;28;20296;-86
2023/12/05 07:11:45;;;;;;;41.73;27.53;;;-1.40;92.90;;;;;;4976967;28;20182;-86
2023/12/05 07:14:13;;;;;;;40.50;26.83;;;-1.40;92.80;;;;;;4994381;28;20258;-87
2023/12/05 07:16:38;;;;;;;50.10;30.67;;;-1.40;92.80;;;;;;4994574;28;20538;-87
2023/12/05 07:19:04;;;;;;;41.80;27.10;;;-1.40;92.70;;;;;;4993080;28;20214;-86
2023/12/05 07:21:30;;;;;;;46.23;28.73;;;-1.40;92.80;;;;;;4976886;28;20241;-86
2023/12/05 07:23:55;;;;;;;43.30;26.43;;;-1.40;92.70;;;;;;4994484;28;20181;-87
2023/12/05 07:26:21;;;;;;;47.57;29.70;;;-1.40;92.70;;;;;;4994065;28;20173;-87
2023/12/05 07:28:46;;;;;;;52.00;35.03;;;-1.40;92.70;;;;;;4994038;28;20197;-87
2023/12/05 07:31:12;;;;;;;53.73;36.13;;;-1.40;92.70;;;;;;4994319;28;20708;-87
2023/12/05 07:33:38;;;;;;;44.23;31.60;;;-1.40;92.70;;;;;;4994025;28;20184;-87
2023/12/05 07:36:04;;;;;;;53.47;36.67;;;-1.40;92.70;;;;;;4993984;28;20182;-86
2023/12/05 07:38:30;;;;;;;53.60;38.03;;;-1.40;92.70;;;;;;4992174;28;20210;-87
2023/12/05 07:40:55;;;;;;;52.20;36.83;;;-1.40;92.70;;;;;;4993813;28;20205;-87
2023/12/05 07:43:21;;;;;;;56.47;39.97;;;-1.40;92.80;;;;;;4976598;28;20169;-87
2023/12/05 07:45:46;;;;;;;47.90;34.20;;;-1.40;92.70;;;;;;4992854;28;20646;-87
2023/12/05 07:48:12;;;;;;;45.83;32.30;;;-1.40;92.70;;;;;;4976529;28;20200;-87
2023/12/05 07:50:37;;;;;;;47.83;34.43;;;-1.40;92.80;;;;;;4993861;28;20187;-87
2023/12/05 07:53:03;;;;;;;47.63;35.83;;;-1.40;92.80;;;;;;4993811;28;20176;-86
2023/12/05 07:55:28;;;;;;;55.10;38.67;;;-1.40;92.70;;;;;;4993793;28;20185;-87
2023/12/05 07:57:54;;;;;;;53.07;37.63;;;-1.40;92.70;;;;;;4993633;28;20201;-86
2023/12/05 08:00:20;;;;;;;61.20;41.03;;;-1.30;92.80;;;;;;4976194;28;20221;-86
2023/12/05 08:02:46;;;;;;;55.27;37.00;;;-1.40;92.90;;;;;;4976339;28;20312;-89
2023/12/05 08:05:12;;;;;;;50.43;33.53;;;-1.30;92.90;;;;;;4976280;28;20553;-86
2023/12/05 08:07:38;;;;;;;56.27;32.70;;;-1.40;92.90;;;;;;4993571;28;20166;-87
2023/12/05 08:10:06;;;;;;;57.50;34.50;;;-1.40;92.90;;;;;;4993531;28;20173;-87
2023/12/05 08:12:31;;;;;;;54.97;36.67;;;-1.40;93.00;;;;;;4976752;28;20189;-87
2023/12/05 08:14:57;;;;;;;55.10;36.43;;;-1.40;93.00;;;;;;4976899;28;20534;-90
2023/12/05 08:17:22;;;;;;;58.47;39.47;;;-1.30;93.10;;;;;;4976112;28;20218;-88
2023/12/05 08:19:48;;;;;;;52.63;31.97;;;-1.30;93.10;;;;;;4993611;28;20280;-86
2023/12/05 08:22:13;;;;;;;63.30;40.33;;;-1.40;93.10;;;;;;4975985;28;20690;-87
2023/12/05 08:24:40;;;;;;;58.23;39.33;;;-1.30;93.20;;;;;;4993800;28;20180;-86
2023/12/05 08:27:05;;;;;;;53.97;39.13;;;-1.30;93.20;;;;;;4993856;28;20361;-87
2023/12/05 08:29:31;;;;;;;59.63;36.83;;;-1.30;93.20;;;;;;4993470;28;20304;-87
2023/12/05 08:31:57;;;;;;;55.83;33.33;;;-1.30;93.20;;;;;;4992218;28;20224;-87
2023/12/05 08:34:23;;;;;;;62.90;38.80;;;-1.30;93.20;;;;;;4976051;28;20244;-87
2023/12/05 08:36:48;;;;;;;64.07;43.23;;;-1.40;93.20;;;;;;4992197;28;20178;-87
2023/12/05 08:39:14;;;;;;;62.40;40.63;;;-1.30;93.30;;;;;;4993400;28;20266;-87
2023/12/05 08:41:39;;;;;;;53.67;36.50;;;-1.40;93.30;;;;;;4993305;28;20220;-87
2023/12/05 08:44:05;;;;;;;64.27;38.27;;;-1.30;93.30;;;;;;4992229;28;20580;-87
2023/12/05 08:46:32;;;;;;;59.60;37.53;;;-1.30;93.30;;;;;;4993244;28;20171;-87
2023/12/05 08:48:57;;;;;;;60.63;40.47;;;-1.30;93.30;;;;;;4993122;28;20190;-87
2023/12/05 08:51:23;;;;;;;64.00;40.17;;;-1.30;93.30;;;;;;4977401;28;20552;-87
2023/12/05 08:53:48;;;;;;;57.20;38.17;;;-1.30;93.30;;;;;;4997230;28;20657;-87
2023/12/05 08:56:14;;;;;;;63.90;40.80;;;-1.30;93.20;;;;;;4979505;28;20193;-87
2023/12/05 08:58:39;;;;;;;64.70;36.53;;;-1.30;93.20;;;;;;4996639;28;20201;-87
2023/12/05 09:01:05;;;;;;;64.23;38.27;;;-1.30;93.20;;;;;;4996890;28;20198;-87
2023/12/05 09:03:30;;;;;;;64.10;40.10;;;-1.30;93.20;;;;;;4979349;28;20201;-87
2023/12/05 09:05:56;;;;;;;53.20;36.23;;;-1.30;93.20;;;;;;4979295;28;20659;-86
2023/12/05 09:08:22;;;;;;;58.27;39.70;;;-1.30;93.20;;;;;;4995444;28;20209;-86
2023/12/05 09:10:48;;;;;;;52.53;31.40;;;-1.30;93.10;;;;;;4996648;28;20230;-86
2023/12/05 09:13:15;;;;;;;59.57;36.90;;;-1.30;93.10;;;;;;4995578;28;20179;-86
2023/12/05 09:15:40;;;;;;;62.57;41.43;;;-1.30;93.00;;;;;;4996862;28;20237;-87
2023/12/05 09:18:06;;;;;;;66.57;45.23;;;-1.30;93.00;;;;;;4979006;28;20217;-86
2023/12/05 09:20:32;;;;;;;62.80;40.53;;;-1.30;93.00;;;;;;4996833;28;20202;-87
2023/12/05 09:22:57;;;;;;;63.63;42.17;;;-1.30;93.10;;;;;;4996685;28;20253;-86
2023/12/05 09:25:23;;;;;;;59.97;36.93;;;-1.20;93.10;;;;;;4996824;28;20181;-86
2023/12/05 09:27:48;;;;;;;58.70;37.90;;;-1.20;93.20;;;;;;4979008;28;20268;-87
2023/12/05 09:30:14;;;;;;;74.93;44.43;;;-1.30;93.30;;;;;;4995265;28;20565;-86
2023/12/05 09:32:40;;;;;;;65.50;40.50;;;-1.30;93.40;;;;;;4978613;28;20658;-87
2023/12/05 09:35:05;;;;;;;60.13;39.40;;;-1.20;93.50;;;;;;4978865;28;20186;-87
2023/12/05 09:37:31;;;;;;;54.40;33.63;;;-1.30;93.50;;;;;;4978615;28;20178;-87
2023/12/05 09:39:58;;;;;;;53.00;31.37;;;-1.20;93.50;;;;;;4978772;28;20249;-87
2023/12/05 09:42:26;;;;;;;44.53;28.20;;;-1.20;93.40;;;;;;4978647;28;20686;-87
2023/12/05 09:44:52;;;;;;;53.83;34.60;;;-1.20;93.30;;;;;;4996590;28;20237;-87
2023/12/05 09:47:21;;;;;;;55.43;37.90;;;-1.20;93.10;;;;;;4995966;28;20235;-87
2023/12/05 09:49:47;;;;;;;47.00;32.77;;;-1.10;93.10;;;;;;4978965;28;20285;-86
2023/12/05 09:52:14;;;;;;;60.50;36.83;;;-1.20;93.00;;;;;;4995995;28;20177;-87
2023/12/05 09:54:43;;;;;;;57.47;34.57;;;-1.10;92.90;;;;;;4996275;28;20541;-87
2023/12/05 09:57:12;;;;;;;44.77;31.37;;;-1.10;92.90;;;;;;4978603;28;20186;-88
2023/12/05 09:59:38;;;;;;;65.40;41.07;;;-1.10;92.70;;;;;;4994754;28;20201;-89
2023/12/05 10:02:05;;;;;;;51.50;37.10;;;-1.10;92.70;;;;;;4994181;28;20198;-87
2023/12/05 10:04:43;;;;;;;63.70;38.70;;;-1.00;92.70;;;;;;4978423;28;20584;-87
2023/12/05 10:07:12;;;;;;;58.50;37.30;;;-1.00;92.70;;;;;;4994474;28;20167;-87
2023/12/05 10:09:40;;;;;;;57.97;39.27;;;-1.00;92.60;;;;;;4996145;28;20562;-87
2023/12/05 10:12:08;;;;;;;61.23;40.87;;;-1.00;92.60;;;;;;4995597;28;20185;-87
2023/12/05 10:14:34;;;;;;;54.27;37.90;;;-1.00;92.50;;;;;;4978158;28;20181;-87
2023/12/05 10:17:02;;;;;;;59.77;36.80;;;-0.90;92.50;;;;;;4994266;28;20189;-86
2023/12/05 10:19:28;;;;;;;52.27;34.30;;;-0.90;92.40;;;;;;4977809;28;20214;-87
2023/12/05 10:21:55;;;;;;;61.13;39.77;;;-0.90;92.20;;;;;;4995260;28;20250;-87
2023/12/05 10:24:21;;;;;;;56.33;39.60;;;-0.80;92.20;;;;;;4995204;28;20264;-86
2023/12/05 10:26:47;;;;;;;58.23;40.57;;;-0.80;92.20;;;;;;4969988;28;20643;-86
2023/12/05 10:29:13;;;;;;;54.17;34.13;;;-0.80;92.20;;;;;;4995134;28;20190;-86
2023/12/05 10:31:40;;;;;;;46.90;29.73;;;-0.80;92.20;;;;;;4993820;28;20177;-86
2023/12/05 10:34:06;;;;;;;53.90;34.07;;;-0.80;92.00;;;;;;4977704;28;20678;-86
2023/12/05 10:36:32;;;;;;;53.97;37.47;;;-0.80;92.10;;;;;;4978143;28;20210;-86
2023/12/05 10:38:58;;;;;;;62.90;41.93;;;-0.80;92.00;;;;;;4977747;28;20205;-87
2023/12/05 10:41:28;;;;;;;58.43;36.43;;;-0.70;92.10;;;;;;4994991;28;20194;-86
2023/12/05 10:43:55;;;;;;;57.70;34.23;;;-0.70;92.10;;;;;;4995009;28;20638;-86
2023/12/05 10:46:23;;;;;;;57.47;37.00;;;-0.70;92.00;;;;;;4977653;28;20178;-87
2023/12/05 10:48:49;;;;;;;50.80;35.87;;;-0.70;92.00;;;;;;4977579;28;20196;-88
2023/12/05 10:51:15;;;;;;;53.30;37.00;;;-0.70;91.80;;;;;;4993951;28;20279;-87
2023/12/05 10:53:41;;;;;;;57.93;35.60;;;-0.70;91.80;;;;;;4993511;28;20257;-89
2023/12/05 10:56:14;;;;;;;54.93;36.83;;;-0.70;91.80;;;;;;4977353;28;20255;-88
2023/12/05 10:58:41;;;;;;;54.70;37.07;;;-0.70;91.90;;;;;;4994510;28;20720;-87
2023/12/05 11:01:11;;;;;;;57.40;36.17;;;-0.70;91.80;;;;;;4993264;28;20635;-87
2023/12/05 11:03:38;;;;;;;56.73;38.10;;;-0.70;91.70;;;;;;4994574;28;20192;-86
2023/12/05 11:06:04;;;;;;;53.97;36.27;;;-0.60;91.80;;;;;;4977295;28;20175;-86
2023/12/05 11:08:31;;;;;;;54.70;34.27;;;-0.60;91.80;;;;;;4977199;28;20198;-86
2023/12/05 11:10:58;;;;;;;51.10;33.60;;;-0.60;91.80;;;;;;4977140;28;20192;-87
2023/12/05 11:13:24;;;;;;;53.93;34.10;;;-0.60;91.40;;;;;;4993628;28;20189;-87
2023/12/05 11:15:50;;;;;;;54.43;34.97;;;-0.60;91.30;;;;;;4976972;28;20178;-87
2023/12/05 11:18:27;;;;;;;44.80;30.00;;;-0.60;91.30;;;;;;4994095;28;20319;-87
2023/12/05 11:21:26;;;;;;;42.40;28.47;;;-0.60;91.10;;;;;;4994426;28;20212;-87
2023/12/05 11:23:54;;;;;;;51.77;32.53;;;-0.50;91.10;;;;;;4976988;28;20162;-88
2023/12/05 11:27:04;;;;;;;50.50;31.77;;;-0.60;90.90;;;;;;4976777;28;20181;-87
2023/12/05 11:30:09;;;;;;;49.27;33.93;;;-0.60;90.90;;;;;;4964048;28;20693;-87
2023/12/05 11:32:43;;;;;;;50.83;33.13;;;-0.60;91.10;;;;;;4954693;28;20186;-87
2023/12/05 11:35:23;;;;;;;43.53;30.17;;;-0.60;91.20;;;;;;4994416;28;20177;-85
2023/12/05 11:38:04;;;;;;;49.40;33.33;;;-0.60;91.30;;;;;;4976669;28;20166;-87
2023/12/05 11:40:30;;;;;;;54.97;39.83;;;-0.60;91.30;;;;;;4992938;28;20228;-88
2023/12/05 11:43:05;;;;;;;56.27;38.27;;;-0.60;91.30;;;;;;4993984;28;20605;-90
2023/12/05 11:45:32;;;;;;;57.43;40.90;;;-0.60;91.40;;;;;;4993830;28;20166;-87
2023/12/05 11:48:01;;;;;;;59.67;43.57;;;-0.50;91.40;;;;;;4976523;28;20692;-87
2023/12/05 11:50:41;;;;;;;54.23;40.80;;;-0.50;91.40;;;;;;4994010;28;20182;-88
2023/12/05 11:53:08;;;;;;;53.53;38.93;;;-0.50;91.40;;;;;;4994122;28;20217;-87
2023/12/05 11:55:35;;;;;;;51.23;38.23;;;-0.50;91.30;;;;;;4993741;28;20654;-87
2023/12/05 11:58:01;;;;;;;55.57;37.57;;;-0.50;91.30;;;;;;4976547;28;20642;-86
2023/12/05 12:00:26;;;;;;;46.90;31.63;;;-0.60;91.30;;;;;;4976552;28;20203;-86
2023/12/05 12:03:00;;;;;;;48.43;31.50;;;-0.60;91.30;;;;;;4976359;28;20182;-89
2023/12/05 12:05:26;;;;;;;55.70;35.33;;;-0.50;91.40;;;;;;4976600;28;20277;-87
2023/12/05 12:07:56;;;;;;;48.20;38.03;;;-0.50;91.30;;;;;;4993628;28;20209;-86
2023/12/05 12:10:22;;;;;;;47.90;32.30;;;-0.50;91.40;;;;;;4992996;28;20257;-86
2023/12/05 12:12:49;;;;;;;45.93;30.60;;;-0.50;91.40;;;;;;4976346;28;20217;-87
2023/12/05 12:15:16;;;;;;;49.03;32.10;;;-0.50;91.40;;;;;;4993802;28;20167;-87
2023/12/05 12:17:43;;;;;;;51.97;38.30;;;-0.50;91.50;;;;;;4993618;28;20203;-88
2023/12/05 12:20:13;;;;;;;54.67;38.90;;;-0.50;91.50;;;;;;4976336;28;20233;-87
2023/12/05 12:22:40;;;;;;;52.67;38.03;;;-0.50;91.60;;;;;;4976189;28;20661;-86
2023/12/05 12:25:11;;;;;;;50.90;33.40;;;-0.50;91.50;;;;;;4977929;28;20182;-86
2023/12/05 12:27:38;;;;;;;52.70;34.53;;;-0.50;91.50;;;;;;4997535;28;20189;-87